Fleetville, Pennsylvania
Current Conditions -  °F | °C
As of 8:54 PM on Friday 19 Dec 2014 (Local Time) from KAVP Reporting Station
Overcast Overcast  
Wind Chill: 22°   Ceiling: 1900
Heat Index: 29°   Visibility: 10mi
Dew Point: 21°   Wind: 7mph
Humidity: 72%   Direction: 340°NNW
Pressure: 30.16"   Gusts: NA
Location:  41.6°N, 75.71°W
Report Text: KAVP 200154Z AUTO 34006KT 10SM OVC019 M02/M06 A3016 RMK AO2 SLP221 T10171061
Loading
Personal Weather Stations






























Interactive Weather Map New forecast layout! Learn more

10-Day Weather Forecast

Advertisements
Track Severe Weather on mobile